sensor_id;sensor_type;location;lat;lon;timestamp;P1;durP1;ratioP1;P2;durP2;ratioP2
1414;SDS011;702;49.466;11.086;2023-02-19T00:01:37;8.77;;;7.93;;
1414;SDS011;702;49.466;11.086;2023-02-19T00:04:09;7.43;;;6.73;;
1414;SDS011;702;49.466;11.086;2023-02-19T00:06:40;7.73;;;6.80;;
1414;SDS011;702;49.466;11.086;2023-02-19T00:09:08;7.00;;;6.30;;
1414;SDS011;702;49.466;11.086;2023-02-19T00:11:38;6.97;;;6.27;;
1414;SDS011;702;49.466;11.086;2023-02-19T00:14:06;6.60;;;5.97;;
1414;SDS011;702;49.466;11.086;2023-02-19T00:16:35;6.27;;;5.60;;
1414;SDS011;702;49.466;11.086;2023-02-19T00:19:05;6.80;;;6.10;;
1414;SDS011;702;49.466;11.086;2023-02-19T00:21:36;6.53;;;5.93;;
1414;SDS011;702;49.466;11.086;2023-02-19T00:24:05;6.17;;;5.40;;
1414;SDS011;702;49.466;11.086;2023-02-19T00:26:33;5.80;;;5.30;;
1414;SDS011;702;49.466;11.086;2023-02-19T00:29:02;5.77;;;5.23;;
1414;SDS011;702;49.466;11.086;2023-02-19T00:31:30;5.00;;;4.53;;
1414;SDS011;702;49.466;11.086;2023-02-19T00:34:00;5.40;;;4.90;;
1414;SDS011;702;49.466;11.086;2023-02-19T00:36:29;5.60;;;5.10;;
1414;SDS011;702;49.466;11.086;2023-02-19T00:39:00;6.13;;;5.60;;
1414;SDS011;702;49.466;11.086;2023-02-19T00:41:27;5.53;;;5.03;;
1414;SDS011;702;49.466;11.086;2023-02-19T00:43:56;6.30;;;5.80;;
1414;SDS011;702;49.466;11.086;2023-02-19T00:46:29;7.33;;;6.63;;
1414;SDS011;702;49.466;11.086;2023-02-19T00:48:59;5.83;;;5.27;;
1414;SDS011;702;49.466;11.086;2023-02-19T00:51:28;6.53;;;5.93;;
1414;SDS011;702;49.466;11.086;2023-02-19T00:53:58;6.67;;;5.90;;
1414;SDS011;702;49.466;11.086;2023-02-19T00:56:27;6.97;;;6.37;;
1414;SDS011;702;49.466;11.086;2023-02-19T00:58:55;6.57;;;5.97;;
1414;SDS011;702;49.466;11.086;2023-02-19T01:01:23;6.73;;;6.10;;
1414;SDS011;702;49.466;11.086;2023-02-19T01:03:52;8.30;;;6.90;;
1414;SDS011;702;49.466;11.086;2023-02-19T01:06:19;5.90;;;5.40;;
1414;SDS011;702;49.466;11.086;2023-02-19T01:08:47;7.57;;;6.87;;
1414;SDS011;702;49.466;11.086;2023-02-19T01:11:17;7.20;;;6.50;;
1414;SDS011;702;49.466;11.086;2023-02-19T01:13:45;8.53;;;6.07;;
1414;SDS011;702;49.466;11.086;2023-02-19T01:16:14;7.07;;;6.47;;
1414;SDS011;702;49.466;11.086;2023-02-19T01:18:47;8.67;;;7.80;;
1414;SDS011;702;49.466;11.086;2023-02-19T01:21:17;7.20;;;6.50;;
1414;SDS011;702;49.466;11.086;2023-02-19T01:23:47;7.03;;;6.40;;
1414;SDS011;702;49.466;11.086;2023-02-19T01:26:16;7.17;;;6.50;;
1414;SDS011;702;49.466;11.086;2023-02-19T01:28:46;8.47;;;6.77;;
1414;SDS011;702;49.466;11.086;2023-02-19T01:31:15;7.13;;;6.43;;
1414;SDS011;702;49.466;11.086;2023-02-19T01:33:44;7.00;;;6.40;;
1414;SDS011;702;49.466;11.086;2023-02-19T01:36:13;7.60;;;6.90;;
1414;SDS011;702;49.466;11.086;2023-02-19T01:38:44;7.80;;;7.10;;
1414;SDS011;702;49.466;11.086;2023-02-19T01:41:13;6.97;;;6.37;;
1414;SDS011;702;49.466;11.086;2023-02-19T01:43:56;7.63;;;6.93;;
1414;SDS011;702;49.466;11.086;2023-02-19T01:46:27;8.20;;;7.40;;
1414;SDS011;702;49.466;11.086;2023-02-19T01:48:56;7.57;;;6.93;;
1414;SDS011;702;49.466;11.086;2023-02-19T01:51:29;7.67;;;6.87;;
1414;SDS011;702;49.466;11.086;2023-02-19T01:53:58;8.07;;;7.23;;
1414;SDS011;702;49.466;11.086;2023-02-19T01:56:31;7.77;;;7.07;;
1414;SDS011;702;49.466;11.086;2023-02-19T01:59:02;8.00;;;7.30;;
1414;SDS011;702;49.466;11.086;2023-02-19T02:01:31;8.70;;;7.83;;
1414;SDS011;702;49.466;11.086;2023-02-19T02:04:00;7.80;;;7.00;;
1414;SDS011;702;49.466;11.086;2023-02-19T02:06:28;8.57;;;7.70;;
1414;SDS011;702;49.466;11.086;2023-02-19T02:09:00;8.37;;;7.27;;
1414;SDS011;702;49.466;11.086;2023-02-19T02:11:45;8.27;;;7.47;;
1414;SDS011;702;49.466;11.086;2023-02-19T02:14:15;8.20;;;7.40;;
1414;SDS011;702;49.466;11.086;2023-02-19T02:16:48;7.40;;;6.70;;
1414;SDS011;702;49.466;11.086;2023-02-19T02:19:28;7.93;;;6.93;;
1414;SDS011;702;49.466;11.086;2023-02-19T02:22:29;8.10;;;6.97;;
1414;SDS011;702;49.466;11.086;2023-02-19T02:25:14;7.10;;;6.43;;
1414;SDS011;702;49.466;11.086;2023-02-19T02:28:01;6.63;;;6.00;;
1414;SDS011;702;49.466;11.086;2023-02-19T02:30:49;7.20;;;5.87;;
1414;SDS011;702;49.466;11.086;2023-02-19T02:33:22;5.73;;;5.23;;
1414;SDS011;702;49.466;11.086;2023-02-19T02:35:58;7.93;;;6.10;;
1414;SDS011;702;49.466;11.086;2023-02-19T02:38:32;6.27;;;5.67;;
1414;SDS011;702;49.466;11.086;2023-02-19T02:41:03;6.00;;;5.40;;
1414;SDS011;702;49.466;11.086;2023-02-19T02:43:31;6.00;;;5.40;;
1414;SDS011;702;49.466;11.086;2023-02-19T02:46:03;5.90;;;5.40;;
1414;SDS011;702;49.466;11.086;2023-02-19T02:48:35;6.17;;;5.60;;
1414;SDS011;702;49.466;11.086;2023-02-19T02:51:08;8.17;;;5.23;;
1414;SDS011;702;49.466;11.086;2023-02-19T02:53:45;5.17;;;4.70;;
1414;SDS011;702;49.466;11.086;2023-02-19T02:56:35;5.60;;;5.10;;
1414;SDS011;702;49.466;11.086;2023-02-19T02:59:06;4.63;;;4.23;;
1414;SDS011;702;49.466;11.086;2023-02-19T03:01:39;5.60;;;5.07;;
1414;SDS011;702;49.466;11.086;2023-02-19T03:04:31;4.97;;;4.47;;
1414;SDS011;702;49.466;11.086;2023-02-19T03:07:24;5.47;;;4.97;;
1414;SDS011;702;49.466;11.086;2023-02-19T03:09:57;5.10;;;4.60;;
1414;SDS011;702;49.466;11.086;2023-02-19T03:12:27;4.33;;;3.93;;
1414;SDS011;702;49.466;11.086;2023-02-19T03:15:14;5.10;;;4.60;;
1414;SDS011;702;49.466;11.086;2023-02-19T03:18:02;5.20;;;4.70;;
1414;SDS011;702;49.466;11.086;2023-02-19T03:20:53;4.83;;;4.43;;
1414;SDS011;702;49.466;11.086;2023-02-19T03:23:25;4.43;;;4.03;;
1414;SDS011;702;49.466;11.086;2023-02-19T03:26:16;4.20;;;3.80;;
1414;SDS011;702;49.466;11.086;2023-02-19T03:28:45;5.03;;;4.60;;
1414;SDS011;702;49.466;11.086;2023-02-19T03:31:33;5.10;;;4.60;;
1414;SDS011;702;49.466;11.086;2023-02-19T03:34:08;5.80;;;4.67;;
1414;SDS011;702;49.466;11.086;2023-02-19T03:36:43;4.60;;;4.20;;
1414;SDS011;702;49.466;11.086;2023-02-19T03:39:16;5.50;;;5.00;;
1414;SDS011;702;49.466;11.086;2023-02-19T03:41:51;4.67;;;4.20;;
1414;SDS011;702;49.466;11.086;2023-02-19T03:44:26;4.60;;;3.67;;
1414;SDS011;702;49.466;11.086;2023-02-19T03:47:08;4.87;;;4.40;;
1414;SDS011;702;49.466;11.086;2023-02-19T03:49:48;4.67;;;4.27;;
1414;SDS011;702;49.466;11.086;2023-02-19T03:52:22;5.20;;;4.70;;
1414;SDS011;702;49.466;11.086;2023-02-19T03:55:02;4.90;;;4.47;;
1414;SDS011;702;49.466;11.086;2023-02-19T03:57:35;5.00;;;4.50;;
1414;SDS011;702;49.466;11.086;2023-02-19T04:00:16;5.00;;;4.50;;
1414;SDS011;702;49.466;11.086;2023-02-19T04:02:47;4.20;;;3.90;;
1414;SDS011;702;49.466;11.086;2023-02-19T04:05:23;5.10;;;4.70;;
1414;SDS011;702;49.466;11.086;2023-02-19T04:07:54;5.10;;;4.70;;
1414;SDS011;702;49.466;11.086;2023-02-19T04:10:25;4.77;;;4.27;;
1414;SDS011;702;49.466;11.086;2023-02-19T04:12:54;4.60;;;4.20;;
1414;SDS011;702;49.466;11.086;2023-02-19T04:15:28;3.90;;;3.60;;
1414;SDS011;702;49.466;11.086;2023-02-19T04:17:59;4.33;;;3.93;;
1414;SDS011;702;49.466;11.086;2023-02-19T04:20:36;4.70;;;4.30;;
1414;SDS011;702;49.466;11.086;2023-02-19T04:23:08;4.03;;;3.73;;
1414;SDS011;702;49.466;11.086;2023-02-19T04:25:36;3.90;;;3.60;;
1414;SDS011;702;49.466;11.086;2023-02-19T04:28:09;4.90;;;4.50;;
1414;SDS011;702;49.466;11.086;2023-02-19T04:30:39;6.83;;;4.20;;
1414;SDS011;702;49.466;11.086;2023-02-19T04:33:07;4.67;;;4.27;;
1414;SDS011;702;49.466;11.086;2023-02-19T04:35:36;4.37;;;4.07;;
1414;SDS011;702;49.466;11.086;2023-02-19T04:38:06;4.40;;;4.00;;
1414;SDS011;702;49.466;11.086;2023-02-19T04:40:33;5.40;;;4.90;;
1414;SDS011;702;49.466;11.086;2023-02-19T04:43:01;4.47;;;4.07;;
1414;SDS011;702;49.466;11.086;2023-02-19T04:45:28;4.47;;;4.07;;
1414;SDS011;702;49.466;11.086;2023-02-19T04:47:56;4.90;;;4.50;;
1414;SDS011;702;49.466;11.086;2023-02-19T04:50:24;4.77;;;4.33;;
1414;SDS011;702;49.466;11.086;2023-02-19T04:52:53;4.00;;;3.70;;
1414;SDS011;702;49.466;11.086;2023-02-19T04:55:20;4.30;;;3.90;;
1414;SDS011;702;49.466;11.086;2023-02-19T04:57:48;4.80;;;4.40;;
1414;SDS011;702;49.466;11.086;2023-02-19T05:00:17;4.97;;;4.57;;
1414;SDS011;702;49.466;11.086;2023-02-19T05:02:45;4.27;;;3.90;;
1414;SDS011;702;49.466;11.086;2023-02-19T05:05:12;5.00;;;4.50;;
1414;SDS011;702;49.466;11.086;2023-02-19T05:07:42;4.40;;;4.00;;
1414;SDS011;702;49.466;11.086;2023-02-19T05:10:11;4.67;;;4.27;;
1414;SDS011;702;49.466;11.086;2023-02-19T05:12:38;4.70;;;4.30;;
1414;SDS011;702;49.466;11.086;2023-02-19T05:15:07;5.60;;;3.90;;
1414;SDS011;702;49.466;11.086;2023-02-19T05:17:34;3.93;;;3.63;;
1414;SDS011;702;49.466;11.086;2023-02-19T05:20:02;3.83;;;3.43;;
1414;SDS011;702;49.466;11.086;2023-02-19T05:22:30;4.00;;;3.70;;
1414;SDS011;702;49.466;11.086;2023-02-19T05:24:57;4.03;;;3.73;;
1414;SDS011;702;49.466;11.086;2023-02-19T05:27:26;4.07;;;3.67;;
1414;SDS011;702;49.466;11.086;2023-02-19T05:29:55;3.23;;;3.00;;
1414;SDS011;702;49.466;11.086;2023-02-19T05:32:23;3.43;;;3.13;;
1414;SDS011;702;49.466;11.086;2023-02-19T05:34:50;2.90;;;2.57;;
1414;SDS011;702;49.466;11.086;2023-02-19T05:37:17;2.80;;;2.60;;
1414;SDS011;702;49.466;11.086;2023-02-19T05:39:45;3.17;;;2.87;;
1414;SDS011;702;49.466;11.086;2023-02-19T05:42:13;2.70;;;2.50;;
1414;SDS011;702;49.466;11.086;2023-02-19T05:44:43;2.97;;;2.77;;
1414;SDS011;702;49.466;11.086;2023-02-19T05:47:10;2.83;;;2.63;;
1414;SDS011;702;49.466;11.086;2023-02-19T05:49:37;2.90;;;2.70;;
1414;SDS011;702;49.466;11.086;2023-02-19T05:52:05;2.80;;;2.60;;
1414;SDS011;702;49.466;11.086;2023-02-19T05:54:32;2.80;;;2.17;;
1414;SDS011;702;49.466;11.086;2023-02-19T05:57:00;2.63;;;2.17;;
1414;SDS011;702;49.466;11.086;2023-02-19T05:59:27;3.50;;;2.40;;
1414;SDS011;702;49.466;11.086;2023-02-19T06:02:03;3.00;;;2.70;;
1414;SDS011;702;49.466;11.086;2023-02-19T06:04:31;2.33;;;2.10;;
1414;SDS011;702;49.466;11.086;2023-02-19T06:06:58;2.20;;;2.00;;
1414;SDS011;702;49.466;11.086;2023-02-19T06:09:26;2.17;;;1.97;;
1414;SDS011;702;49.466;11.086;2023-02-19T06:11:53;2.40;;;2.20;;
1414;SDS011;702;49.466;11.086;2023-02-19T06:14:21;2.40;;;2.20;;
1414;SDS011;702;49.466;11.086;2023-02-19T06:16:50;3.13;;;2.90;;
1414;SDS011;702;49.466;11.086;2023-02-19T06:19:18;2.73;;;2.53;;
1414;SDS011;702;49.466;11.086;2023-02-19T06:21:48;2.47;;;2.27;;
1414;SDS011;702;49.466;11.086;2023-02-19T06:24:15;2.63;;;2.43;;
1414;SDS011;702;49.466;11.086;2023-02-19T06:26:43;2.73;;;2.43;;
1414;SDS011;702;49.466;11.086;2023-02-19T06:29:11;2.67;;;2.47;;
1414;SDS011;702;49.466;11.086;2023-02-19T06:31:38;3.43;;;2.70;;
1414;SDS011;702;49.466;11.086;2023-02-19T06:34:05;2.80;;;2.60;;
1414;SDS011;702;49.466;11.086;2023-02-19T06:36:34;2.60;;;2.40;;
1414;SDS011;702;49.466;11.086;2023-02-19T06:39:02;2.93;;;2.73;;
1414;SDS011;702;49.466;11.086;2023-02-19T06:41:30;3.70;;;2.70;;
1414;SDS011;702;49.466;11.086;2023-02-19T06:43:58;2.80;;;2.20;;
1414;SDS011;702;49.466;11.086;2023-02-19T06:46:25;2.47;;;2.27;;
1414;SDS011;702;49.466;11.086;2023-02-19T06:48:53;3.20;;;2.37;;
1414;SDS011;702;49.466;11.086;2023-02-19T06:51:20;2.40;;;2.20;;
1414;SDS011;702;49.466;11.086;2023-02-19T06:53:51;2.83;;;2.63;;
1414;SDS011;702;49.466;11.086;2023-02-19T06:56:20;2.93;;;2.20;;
1414;SDS011;702;49.466;11.086;2023-02-19T06:58:50;2.60;;;2.40;;
1414;SDS011;702;49.466;11.086;2023-02-19T07:01:19;2.90;;;2.60;;
1414;SDS011;702;49.466;11.086;2023-02-19T07:03:46;2.03;;;1.90;;
1414;SDS011;702;49.466;11.086;2023-02-19T07:06:14;2.00;;;1.80;;
1414;SDS011;702;49.466;11.086;2023-02-19T07:08:41;1.87;;;1.77;;
1414;SDS011;702;49.466;11.086;2023-02-19T07:11:09;1.93;;;1.83;;
1414;SDS011;702;49.466;11.086;2023-02-19T07:13:37;3.33;;;2.20;;
1414;SDS011;702;49.466;11.086;2023-02-19T07:16:06;1.73;;;1.63;;
1414;SDS011;702;49.466;11.086;2023-02-19T07:18:35;1.83;;;1.73;;
1414;SDS011;702;49.466;11.086;2023-02-19T07:21:04;1.90;;;1.80;;
1414;SDS011;702;49.466;11.086;2023-02-19T07:23:33;2.27;;;2.07;;
1414;SDS011;702;49.466;11.086;2023-02-19T07:26:01;1.53;;;1.43;;
1414;SDS011;702;49.466;11.086;2023-02-19T07:28:30;1.20;;;1.10;;
1414;SDS011;702;49.466;11.086;2023-02-19T07:30:58;1.33;;;1.23;;
1414;SDS011;702;49.466;11.086;2023-02-19T07:33:29;2.10;;;1.77;;
1414;SDS011;702;49.466;11.086;2023-02-19T07:35:56;1.93;;;1.73;;
1414;SDS011;702;49.466;11.086;2023-02-19T07:38:24;2.20;;;2.00;;
1414;SDS011;702;49.466;11.086;2023-02-19T07:40:52;1.77;;;1.67;;
1414;SDS011;702;49.466;11.086;2023-02-19T07:43:21;1.53;;;1.43;;
1414;SDS011;702;49.466;11.086;2023-02-19T07:45:51;1.97;;;1.87;;
1414;SDS011;702;49.466;11.086;2023-02-19T07:48:18;1.90;;;1.80;;
1414;SDS011;702;49.466;11.086;2023-02-19T07:50:49;1.80;;;1.70;;
1414;SDS011;702;49.466;11.086;2023-02-19T07:53:17;1.80;;;1.70;;
1414;SDS011;702;49.466;11.086;2023-02-19T07:55:44;2.20;;;2.00;;
1414;SDS011;702;49.466;11.086;2023-02-19T07:58:12;1.80;;;1.70;;
1414;SDS011;702;49.466;11.086;2023-02-19T08:00:39;2.27;;;1.50;;
1414;SDS011;702;49.466;11.086;2023-02-19T08:03:08;2.97;;;2.00;;
1414;SDS011;702;49.466;11.086;2023-02-19T08:05:36;2.37;;;2.17;;
1414;SDS011;702;49.466;11.086;2023-02-19T08:08:05;1.60;;;1.50;;
1414;SDS011;702;49.466;11.086;2023-02-19T08:10:34;1.90;;;1.80;;
1414;SDS011;702;49.466;11.086;2023-02-19T08:13:18;3.67;;;1.97;;
1414;SDS011;702;49.466;11.086;2023-02-19T08:15:51;2.00;;;1.80;;
1414;SDS011;702;49.466;11.086;2023-02-19T08:18:21;1.83;;;1.73;;
1414;SDS011;702;49.466;11.086;2023-02-19T08:20:50;1.73;;;1.63;;
1414;SDS011;702;49.466;11.086;2023-02-19T08:23:18;2.50;;;2.30;;
1414;SDS011;702;49.466;11.086;2023-02-19T08:25:46;1.40;;;1.30;;
1414;SDS011;702;49.466;11.086;2023-02-19T08:28:15;1.70;;;1.60;;
1414;SDS011;702;49.466;11.086;2023-02-19T08:30:43;2.20;;;1.77;;
1414;SDS011;702;49.466;11.086;2023-02-19T08:33:13;1.73;;;1.63;;
1414;SDS011;702;49.466;11.086;2023-02-19T08:35:44;3.40;;;1.40;;
1414;SDS011;702;49.466;11.086;2023-02-19T08:38:13;1.80;;;1.70;;
1414;SDS011;702;49.466;11.086;2023-02-19T08:40:42;1.70;;;1.60;;
1414;SDS011;702;49.466;11.086;2023-02-19T08:43:10;1.90;;;1.47;;
1414;SDS011;702;49.466;11.086;2023-02-19T08:45:40;2.20;;;1.43;;
1414;SDS011;702;49.466;11.086;2023-02-19T08:48:10;1.70;;;1.50;;
1414;SDS011;702;49.466;11.086;2023-02-19T08:50:37;1.27;;;1.07;;
1414;SDS011;702;49.466;11.086;2023-02-19T08:53:06;1.30;;;1.20;;
1414;SDS011;702;49.466;11.086;2023-02-19T08:55:35;1.50;;;1.40;;
1414;SDS011;702;49.466;11.086;2023-02-19T08:58:03;1.20;;;0.97;;
1414;SDS011;702;49.466;11.086;2023-02-19T09:00:31;1.37;;;0.90;;
1414;SDS011;702;49.466;11.086;2023-02-19T09:02:58;1.13;;;1.03;;
1414;SDS011;702;49.466;11.086;2023-02-19T09:05:26;1.00;;;0.90;;
1414;SDS011;702;49.466;11.086;2023-02-19T09:07:53;1.20;;;1.10;;
1414;SDS011;702;49.466;11.086;2023-02-19T09:10:22;1.73;;;1.20;;
1414;SDS011;702;49.466;11.086;2023-02-19T09:12:49;1.33;;;1.23;;
1414;SDS011;702;49.466;11.086;2023-02-19T09:15:16;1.17;;;1.07;;
1414;SDS011;702;49.466;11.086;2023-02-19T09:17:43;2.63;;;1.57;;
1414;SDS011;702;49.466;11.086;2023-02-19T09:20:11;2.20;;;1.67;;
1414;SDS011;702;49.466;11.086;2023-02-19T09:22:38;1.27;;;1.03;;
1414;SDS011;702;49.466;11.086;2023-02-19T09:25:05;1.63;;;1.50;;
1414;SDS011;702;49.466;11.086;2023-02-19T09:27:35;1.60;;;1.43;;
1414;SDS011;702;49.466;11.086;2023-02-19T09:30:02;1.60;;;1.50;;
1414;SDS011;702;49.466;11.086;2023-02-19T09:32:30;2.03;;;1.50;;
1414;SDS011;702;49.466;11.086;2023-02-19T09:34:58;2.20;;;1.90;;
1414;SDS011;702;49.466;11.086;2023-02-19T09:37:25;2.40;;;1.90;;
1414;SDS011;702;49.466;11.086;2023-02-19T09:39:53;2.30;;;2.10;;
1414;SDS011;702;49.466;11.086;2023-02-19T09:42:21;1.70;;;1.60;;
1414;SDS011;702;49.466;11.086;2023-02-19T09:44:53;2.90;;;2.00;;
1414;SDS011;702;49.466;11.086;2023-02-19T09:47:24;3.80;;;2.10;;
1414;SDS011;702;49.466;11.086;2023-02-19T09:49:54;2.00;;;1.77;;
1414;SDS011;702;49.466;11.086;2023-02-19T09:52:27;2.03;;;1.87;;
1414;SDS011;702;49.466;11.086;2023-02-19T09:55:01;2.33;;;2.00;;
1414;SDS011;702;49.466;11.086;2023-02-19T09:57:39;2.40;;;2.20;;
1414;SDS011;702;49.466;11.086;2023-02-19T10:00:18;1.97;;;1.63;;
1414;SDS011;702;49.466;11.086;2023-02-19T10:02:50;2.90;;;2.13;;
1414;SDS011;702;49.466;11.086;2023-02-19T10:05:18;3.60;;;2.37;;
1414;SDS011;702;49.466;11.086;2023-02-19T10:07:49;2.60;;;2.40;;
1414;SDS011;702;49.466;11.086;2023-02-19T10:10:24;2.60;;;2.40;;
1414;SDS011;702;49.466;11.086;2023-02-19T10:12:58;2.30;;;2.10;;
1414;SDS011;702;49.466;11.086;2023-02-19T10:15:43;2.70;;;2.50;;
1414;SDS011;702;49.466;11.086;2023-02-19T10:18:15;2.30;;;1.60;;
1414;SDS011;702;49.466;11.086;2023-02-19T10:20:45;4.67;;;2.10;;
1414;SDS011;702;49.466;11.086;2023-02-19T10:23:13;2.27;;;1.97;;
1414;SDS011;702;49.466;11.086;2023-02-19T10:25:43;3.50;;;3.00;;
1414;SDS011;702;49.466;11.086;2023-02-19T10:28:15;2.33;;;2.00;;
1414;SDS011;702;49.466;11.086;2023-02-19T10:30:49;3.03;;;2.30;;
1414;SDS011;702;49.466;11.086;2023-02-19T10:33:19;2.03;;;1.90;;
1414;SDS011;702;49.466;11.086;2023-02-19T10:35:51;3.73;;;2.50;;
1414;SDS011;702;49.466;11.086;2023-02-19T10:38:22;2.53;;;1.90;;
1414;SDS011;702;49.466;11.086;2023-02-19T10:40:58;2.73;;;1.80;;
1414;SDS011;702;49.466;11.086;2023-02-19T10:43:31;3.00;;;2.10;;
1414;SDS011;702;49.466;11.086;2023-02-19T10:46:05;2.33;;;2.00;;
1414;SDS011;702;49.466;11.086;2023-02-19T10:48:45;2.80;;;2.13;;
1414;SDS011;702;49.466;11.086;2023-02-19T10:51:16;2.90;;;2.40;;
1414;SDS011;702;49.466;11.086;2023-02-19T10:53:47;2.23;;;2.00;;
1414;SDS011;702;49.466;11.086;2023-02-19T10:56:21;3.13;;;2.40;;
1414;SDS011;702;49.466;11.086;2023-02-19T10:58:50;4.03;;;2.40;;
1414;SDS011;702;49.466;11.086;2023-02-19T11:01:20;3.00;;;2.00;;
1414;SDS011;702;49.466;11.086;2023-02-19T11:03:49;3.90;;;2.90;;
1414;SDS011;702;49.466;11.086;2023-02-19T11:06:19;3.80;;;2.20;;
1414;SDS011;702;49.466;11.086;2023-02-19T11:08:53;3.77;;;2.97;;
1414;SDS011;702;49.466;11.086;2023-02-19T11:14:12;2.63;;;2.40;;
1414;SDS011;702;49.466;11.086;2023-02-19T11:16:45;2.83;;;2.57;;
1414;SDS011;702;49.466;11.086;2023-02-19T11:22:01;3.60;;;2.83;;
1414;SDS011;702;49.466;11.086;2023-02-19T11:24:55;4.40;;;3.50;;
1414;SDS011;702;49.466;11.086;2023-02-19T11:27:26;3.83;;;3.43;;
1414;SDS011;702;49.466;11.086;2023-02-19T11:29:54;4.03;;;3.30;;
1414;SDS011;702;49.466;11.086;2023-02-19T11:32:27;3.43;;;3.13;;
1414;SDS011;702;49.466;11.086;2023-02-19T11:35:15;3.93;;;3.30;;
1414;SDS011;702;49.466;11.086;2023-02-19T11:37:52;3.43;;;2.63;;
1414;SDS011;702;49.466;11.086;2023-02-19T11:40:23;3.47;;;3.10;;
1414;SDS011;702;49.466;11.086;2023-02-19T11:43:05;4.67;;;4.17;;
1414;SDS011;702;49.466;11.086;2023-02-19T11:46:01;5.90;;;3.60;;
1414;SDS011;702;49.466;11.086;2023-02-19T11:48:43;6.77;;;3.70;;
1414;SDS011;702;49.466;11.086;2023-02-19T11:54:44;6.97;;;4.10;;
1414;SDS011;702;49.466;11.086;2023-02-19T11:57:21;4.80;;;3.30;;
1414;SDS011;702;49.466;11.086;2023-02-19T12:00:13;3.60;;;3.03;;
1414;SDS011;702;49.466;11.086;2023-02-19T12:06:21;3.70;;;2.90;;
1414;SDS011;702;49.466;11.086;2023-02-19T12:09:00;3.90;;;3.53;;
1414;SDS011;702;49.466;11.086;2023-02-19T12:12:01;5.60;;;4.60;;
1414;SDS011;702;49.466;11.086;2023-02-19T12:14:52;3.30;;;2.77;;
1414;SDS011;702;49.466;11.086;2023-02-19T12:17:35;5.53;;;3.40;;
1414;SDS011;702;49.466;11.086;2023-02-19T12:20:42;5.77;;;3.43;;
1414;SDS011;702;49.466;11.086;2023-02-19T12:23:29;3.20;;;2.90;;
1414;SDS011;702;49.466;11.086;2023-02-19T12:26:19;3.30;;;3.00;;
1414;SDS011;702;49.466;11.086;2023-02-19T12:31:47;3.80;;;2.90;;
1414;SDS011;702;49.466;11.086;2023-02-19T12:34:55;4.77;;;2.40;;
1414;SDS011;702;49.466;11.086;2023-02-19T12:38:10;3.83;;;3.53;;
1414;SDS011;702;49.466;11.086;2023-02-19T12:40:59;5.20;;;3.67;;
1414;SDS011;702;49.466;11.086;2023-02-19T12:43:42;3.43;;;3.10;;
1414;SDS011;702;49.466;11.086;2023-02-19T12:46:19;8.50;;;3.60;;
1414;SDS011;702;49.466;11.086;2023-02-19T12:48:55;4.40;;;3.37;;
1414;SDS011;702;49.466;11.086;2023-02-19T12:51:30;6.27;;;3.73;;
1414;SDS011;702;49.466;11.086;2023-02-19T12:54:05;6.70;;;3.83;;
1414;SDS011;702;49.466;11.086;2023-02-19T12:56:41;6.67;;;4.43;;
1414;SDS011;702;49.466;11.086;2023-02-19T12:59:13;4.20;;;3.77;;
1414;SDS011;702;49.466;11.086;2023-02-19T13:01:49;5.70;;;3.40;;
1414;SDS011;702;49.466;11.086;2023-02-19T13:04:24;6.20;;;3.40;;
1414;SDS011;702;49.466;11.086;2023-02-19T13:07:00;6.43;;;3.40;;
1414;SDS011;702;49.466;11.086;2023-02-19T13:09:34;4.23;;;3.20;;
1414;SDS011;702;49.466;11.086;2023-02-19T13:12:06;3.40;;;3.10;;
1414;SDS011;702;49.466;11.086;2023-02-19T13:14:39;3.83;;;2.90;;
1414;SDS011;702;49.466;11.086;2023-02-19T13:17:19;4.67;;;3.30;;
1414;SDS011;702;49.466;11.086;2023-02-19T13:19:52;4.30;;;3.03;;
1414;SDS011;702;49.466;11.086;2023-02-19T13:22:26;3.00;;;2.70;;
1414;SDS011;702;49.466;11.086;2023-02-19T13:25:20;3.87;;;2.93;;
1414;SDS011;702;49.466;11.086;2023-02-19T13:28:01;3.53;;;3.13;;
1414;SDS011;702;49.466;11.086;2023-02-19T13:30:41;5.77;;;3.10;;
1414;SDS011;702;49.466;11.086;2023-02-19T13:33:38;4.73;;;3.30;;
1414;SDS011;702;49.466;11.086;2023-02-19T13:36:13;5.93;;;3.73;;
1414;SDS011;702;49.466;11.086;2023-02-19T13:38:45;2.87;;;2.50;;
1414;SDS011;702;49.466;11.086;2023-02-19T13:41:17;3.00;;;2.70;;
1414;SDS011;702;49.466;11.086;2023-02-19T13:43:58;3.00;;;2.70;;
1414;SDS011;702;49.466;11.086;2023-02-19T13:46:33;3.23;;;2.77;;
1414;SDS011;702;49.466;11.086;2023-02-19T13:49:23;3.30;;;3.00;;
1414;SDS011;702;49.466;11.086;2023-02-19T14:04:45;3.93;;;3.03;;
1414;SDS011;702;49.466;11.086;2023-02-19T14:07:20;2.10;;;1.90;;
1414;SDS011;702;49.466;11.086;2023-02-19T14:10:02;4.30;;;2.77;;
1414;SDS011;702;49.466;11.086;2023-02-19T14:12:36;2.43;;;2.23;;
1414;SDS011;702;49.466;11.086;2023-02-19T14:21:14;2.60;;;2.13;;
1414;SDS011;702;49.466;11.086;2023-02-19T14:23:50;2.33;;;1.97;;
1414;SDS011;702;49.466;11.086;2023-02-19T14:26:19;3.73;;;2.10;;
1414;SDS011;702;49.466;11.086;2023-02-19T14:28:47;2.93;;;2.37;;
1414;SDS011;702;49.466;11.086;2023-02-19T14:31:19;3.50;;;2.10;;
1414;SDS011;702;49.466;11.086;2023-02-19T14:33:53;2.80;;;2.13;;
1414;SDS011;702;49.466;11.086;2023-02-19T14:36:31;2.37;;;2.00;;
1414;SDS011;702;49.466;11.086;2023-02-19T14:39:09;2.60;;;1.90;;
1414;SDS011;702;49.466;11.086;2023-02-19T14:41:43;3.40;;;2.67;;
1414;SDS011;702;49.466;11.086;2023-02-19T14:44:14;4.33;;;3.00;;
1414;SDS011;702;49.466;11.086;2023-02-19T14:46:47;3.00;;;2.13;;
1414;SDS011;702;49.466;11.086;2023-02-19T14:49:22;2.93;;;2.53;;
1414;SDS011;702;49.466;11.086;2023-02-19T14:51:57;5.00;;;2.30;;
1414;SDS011;702;49.466;11.086;2023-02-19T14:54:32;4.00;;;2.87;;
1414;SDS011;702;49.466;11.086;2023-02-19T14:57:09;3.00;;;2.70;;
1414;SDS011;702;49.466;11.086;2023-02-19T14:59:50;3.27;;;2.17;;
1414;SDS011;702;49.466;11.086;2023-02-19T15:02:21;3.63;;;2.60;;
1414;SDS011;702;49.466;11.086;2023-02-19T15:04:50;2.93;;;2.37;;
1414;SDS011;702;49.466;11.086;2023-02-19T15:07:19;2.70;;;2.30;;
1414;SDS011;702;49.466;11.086;2023-02-19T15:09:50;4.67;;;2.77;;
1414;SDS011;702;49.466;11.086;2023-02-19T15:12:22;2.80;;;2.43;;
1414;SDS011;702;49.466;11.086;2023-02-19T15:14:54;3.37;;;2.90;;
1414;SDS011;702;49.466;11.086;2023-02-19T15:17:27;3.27;;;2.50;;
1414;SDS011;702;49.466;11.086;2023-02-19T15:19:57;3.40;;;2.67;;
1414;SDS011;702;49.466;11.086;2023-02-19T15:22:29;4.13;;;2.87;;
1414;SDS011;702;49.466;11.086;2023-02-19T15:24:59;5.93;;;3.10;;
1414;SDS011;702;49.466;11.086;2023-02-19T15:27:26;6.70;;;3.03;;
1414;SDS011;702;49.466;11.086;2023-02-19T15:29:54;4.70;;;3.10;;
1414;SDS011;702;49.466;11.086;2023-02-19T15:32:22;3.33;;;2.83;;
1414;SDS011;702;49.466;11.086;2023-02-19T15:34:56;6.70;;;3.40;;
1414;SDS011;702;49.466;11.086;2023-02-19T15:37:25;3.27;;;2.63;;
1414;SDS011;702;49.466;11.086;2023-02-19T15:39:56;3.40;;;2.83;;
1414;SDS011;702;49.466;11.086;2023-02-19T15:42:27;4.37;;;2.90;;
1414;SDS011;702;49.466;11.086;2023-02-19T15:44:57;4.40;;;2.80;;
1414;SDS011;702;49.466;11.086;2023-02-19T15:47:31;3.57;;;2.50;;
1414;SDS011;702;49.466;11.086;2023-02-19T15:50:05;3.93;;;2.60;;
1414;SDS011;702;49.466;11.086;2023-02-19T15:52:40;5.63;;;2.50;;
1414;SDS011;702;49.466;11.086;2023-02-19T15:55:17;3.20;;;2.90;;
1414;SDS011;702;49.466;11.086;2023-02-19T15:57:53;4.83;;;3.40;;
1414;SDS011;702;49.466;11.086;2023-02-19T16:00:30;3.77;;;2.73;;
1414;SDS011;702;49.466;11.086;2023-02-19T16:03:02;4.23;;;3.57;;
1414;SDS011;702;49.466;11.086;2023-02-19T16:05:32;3.93;;;2.63;;
1414;SDS011;702;49.466;11.086;2023-02-19T16:08:07;3.40;;;2.70;;
1414;SDS011;702;49.466;11.086;2023-02-19T16:10:55;4.07;;;2.60;;
1414;SDS011;702;49.466;11.086;2023-02-19T16:13:24;3.50;;;2.73;;
1414;SDS011;702;49.466;11.086;2023-02-19T16:15:56;5.77;;;3.03;;
1414;SDS011;702;49.466;11.086;2023-02-19T16:18:27;3.07;;;2.57;;
1414;SDS011;702;49.466;11.086;2023-02-19T16:20:56;3.00;;;2.73;;
1414;SDS011;702;49.466;11.086;2023-02-19T16:23:24;7.67;;;2.93;;